createdAt,value
2023-01-13T06:35:11.934Z,20.30
2023-01-13T06:37:40.627Z,14.15
2023-01-13T06:40:08.578Z,17.40
2023-01-13T06:42:56.034Z,18.07
2023-01-13T06:45:24.264Z,13.23
2023-01-13T06:47:51.931Z,15.43
2023-01-13T06:50:19.517Z,16.97
2023-01-13T06:52:47.091Z,15.63
2023-01-13T06:55:14.396Z,18.33
2023-01-13T06:57:51.603Z,19.03
2023-01-13T07:00:19.260Z,16.67
2023-01-13T07:02:46.637Z,15.67
2023-01-13T07:05:14.128Z,17.47
2023-01-13T07:07:41.846Z,16.47
2023-01-13T07:10:11.341Z,15.23
2023-01-13T07:12:57.110Z,14.70
2023-01-13T07:15:24.678Z,14.27
2023-01-13T07:17:52.040Z,16.27
2023-01-13T07:20:19.756Z,18.37
2023-01-13T07:22:47.281Z,14.17
2023-01-13T07:25:14.671Z,16.23
2023-01-13T07:27:42.086Z,15.77
2023-01-13T07:30:09.738Z,14.07
2023-01-13T07:32:37.055Z,17.00
2023-01-13T07:35:07.443Z,13.63
2023-01-13T07:37:35.787Z,14.93
2023-01-13T07:40:03.567Z,16.37
2023-01-13T07:42:49.701Z,15.40
2023-01-13T07:45:17.028Z,12.87
2023-01-13T07:47:44.365Z,13.37
2023-01-13T07:50:11.860Z,14.67
2023-01-13T07:52:39.276Z,17.93
2023-01-13T07:55:07.828Z,15.10
2023-01-13T07:57:35.172Z,17.50
2023-01-13T08:00:02.702Z,15.30
2023-01-13T08:02:32.360Z,16.67
2023-01-13T08:04:59.974Z,16.23
2023-01-13T08:07:27.525Z,15.63
2023-01-13T08:09:54.951Z,12.27
2023-01-13T08:12:41.309Z,15.70
2023-01-13T08:15:23.948Z,13.07
2023-01-13T08:17:51.339Z,15.17
2023-01-13T08:20:19.231Z,15.77
2023-01-13T08:22:46.631Z,17.27
2023-01-13T08:25:14.344Z,13.40
2023-01-13T08:27:41.808Z,14.60
2023-01-13T08:30:09.570Z,15.70
2023-01-13T08:32:36.961Z,15.73
2023-01-13T08:35:04.403Z,15.33
2023-01-13T08:37:31.773Z,16.20
2023-01-13T08:39:59.137Z,12.20
2023-01-13T08:42:27.796Z,17.30
2023-01-13T08:44:55.425Z,12.73
2023-01-13T08:47:22.800Z,15.70
2023-01-13T08:49:50.259Z,12.53
2023-01-13T08:52:17.809Z,13.33
2023-01-13T08:54:45.535Z,16.00
2023-01-13T08:57:13.557Z,15.40
2023-01-13T08:59:40.911Z,14.13
2023-01-13T09:02:15.413Z,13.53
2023-01-13T09:04:55.458Z,15.53
2023-01-13T09:07:22.787Z,13.00
2023-01-13T09:09:50.127Z,14.60
2023-01-13T09:12:36.103Z,12.10
2023-01-13T09:15:03.774Z,11.80
2023-01-13T09:17:31.271Z,14.67
2023-01-13T09:19:58.577Z,14.10
2023-01-13T09:22:27.306Z,13.57
2023-01-13T09:24:55.360Z,12.07
2023-01-13T09:27:23.224Z,13.40
2023-01-13T09:29:50.797Z,12.47
2023-01-13T09:32:18.127Z,15.90
2023-01-13T09:35:00.884Z,11.93
2023-01-13T09:37:34.166Z,15.33
2023-01-13T09:40:02.156Z,14.03
2023-01-13T09:43:06.587Z,14.40
2023-01-13T09:45:38.513Z,14.67
2023-01-13T09:48:14.335Z,16.57
2023-01-13T09:50:41.688Z,12.87
2023-01-13T09:53:12.945Z,14.20
2023-01-13T09:55:40.485Z,13.40
2023-01-13T09:58:13.169Z,11.70
2023-01-13T10:00:44.737Z,12.70
2023-01-13T10:03:21.326Z,16.23
2023-01-13T10:05:51.546Z,12.07
2023-01-13T10:08:18.897Z,14.17
2023-01-13T10:10:48.737Z,11.13
2023-01-13T10:13:20.777Z,9.57
2023-01-13T10:15:51.095Z,11.80
2023-01-13T10:18:38.728Z,10.63
2023-01-13T10:21:09.206Z,13.57
2023-01-13T10:23:38.022Z,15.70
2023-01-13T10:26:25.396Z,14.87
2023-01-13T10:28:53.997Z,14.60
2023-01-13T10:31:22.264Z,13.70
2023-01-13T10:33:49.735Z,11.93
2023-01-13T10:36:21.517Z,17.23
2023-01-13T10:38:50.079Z,11.10
2023-01-13T10:41:20.539Z,13.10
2023-01-13T10:44:13.933Z,11.73
2023-01-13T10:46:57.921Z,13.60
2023-01-13T10:49:32.751Z,10.77
2023-01-13T10:52:00.904Z,12.23
2023-01-13T10:54:28.616Z,14.43
2023-01-13T10:57:16.044Z,11.63
2023-01-13T10:59:43.434Z,11.93
2023-01-13T11:02:31.035Z,11.63
2023-01-13T11:05:02.867Z,11.93
2023-01-13T11:07:32.659Z,13.67
2023-01-13T11:10:06.757Z,11.47
2023-01-13T11:12:35.465Z,13.73
2023-01-13T11:15:05.320Z,14.67
2023-01-13T11:17:45.578Z,13.70
2023-01-13T11:20:13.250Z,13.43
2023-01-13T11:22:46.030Z,11.20
2023-01-13T11:25:20.886Z,15.07
2023-01-13T11:28:01.045Z,12.87
2023-01-13T11:30:39.489Z,12.17
2023-01-13T11:33:16.330Z,11.43
2023-01-13T11:35:57.280Z,13.90
2023-01-13T11:38:30.752Z,12.43
2023-01-13T11:41:01.496Z,13.23
2023-01-13T11:43:28.952Z,14.70
2023-01-13T11:45:58.139Z,11.43
2023-01-13T11:48:27.174Z,12.57
2023-01-13T11:50:55.207Z,13.70
2023-01-13T11:53:36.601Z,10.57
2023-01-13T11:56:14.542Z,12.70
2023-01-13T11:58:50.319Z,18.00
2023-01-13T12:01:28.876Z,12.53
2023-01-13T12:04:05.571Z,13.50
2023-01-13T12:06:33.115Z,14.03
2023-01-13T12:09:03.257Z,13.93
2023-01-13T12:11:56.645Z,11.87
2023-01-13T12:14:36.858Z,14.47
2023-01-13T12:17:07.043Z,11.67
2023-01-13T12:19:34.481Z,14.77
2023-01-13T12:22:08.700Z,14.70
2023-01-13T12:24:39.081Z,11.73
2023-01-13T12:27:16.618Z,12.20
2023-01-13T12:29:45.253Z,13.20
2023-01-13T12:32:15.181Z,13.37
2023-01-13T12:35:18.178Z,12.53
2023-01-13T12:37:45.816Z,12.83
2023-01-13T12:40:13.415Z,13.50
2023-01-13T12:43:05.249Z,15.03
2023-01-13T12:45:33.981Z,15.37
2023-01-13T12:48:02.061Z,12.63
2023-01-13T12:50:29.663Z,15.23
2023-01-13T12:52:58.261Z,14.17
2023-01-13T12:55:35.890Z,13.20
2023-01-13T12:58:09.218Z,13.33
2023-01-13T13:00:38.234Z,15.87
2023-01-13T13:03:14.246Z,11.47
2023-01-13T13:06:00.258Z,13.97
2023-01-13T13:08:46.351Z,18.60
2023-01-13T13:11:31.939Z,15.83
2023-01-13T13:14:03.577Z,16.47
2023-01-13T13:16:30.974Z,15.97
2023-01-13T13:19:17.418Z,11.10
2023-01-13T13:22:03.513Z,12.07
2023-01-13T13:24:30.978Z,18.00
2023-01-13T13:26:58.360Z,13.90
2023-01-13T13:29:48.776Z,12.53
2023-01-13T13:32:19.150Z,15.63
2023-01-13T13:35:09.010Z,15.10
2023-01-13T13:38:09.848Z,13.67
2023-01-13T13:41:06.351Z,11.67
2023-01-13T13:43:58.450Z,14.70
2023-01-13T13:46:44.317Z,12.73
2023-01-13T13:49:12.245Z,15.37
2023-01-13T13:51:52.233Z,13.00
2023-01-13T13:54:21.963Z,14.50
2023-01-13T13:56:50.424Z,16.57
2023-01-13T13:59:25.406Z,12.97
2023-01-13T14:02:01.762Z,14.33
2023-01-13T14:04:31.223Z,14.97
2023-01-13T14:06:59.668Z,13.40
2023-01-13T14:09:28.699Z,16.03
2023-01-13T14:11:57.030Z,13.20
2023-01-13T14:14:25.149Z,12.73
2023-01-13T14:16:54.954Z,13.43
2023-01-13T14:19:31.417Z,16.27
2023-01-13T14:22:01.283Z,23.37
2023-01-13T14:24:30.052Z,13.23
2023-01-13T14:27:11.038Z,12.53
2023-01-13T14:29:40.091Z,12.53
2023-01-13T14:32:08.127Z,12.93
2023-01-13T14:34:36.575Z,12.43
2023-01-13T14:37:04.243Z,12.47
2023-01-13T14:39:36.382Z,12.00
2023-01-13T14:42:04.787Z,12.97
2023-01-13T14:44:34.918Z,17.93
2023-01-13T14:47:18.004Z,12.90
2023-01-13T14:50:06.749Z,13.93
2023-01-13T14:52:35.800Z,13.20
2023-01-13T14:55:10.158Z,12.13
2023-01-13T14:57:39.619Z,16.97
2023-01-13T15:00:19.903Z,12.07
2023-01-13T15:02:59.391Z,14.47
2023-01-13T15:05:26.777Z,11.83
2023-01-13T15:08:04.231Z,15.70
2023-01-13T15:10:38.440Z,17.00
2023-01-13T15:13:07.396Z,13.80
2023-01-13T15:15:35.885Z,14.07
2023-01-13T15:18:06.555Z,14.03
2023-01-13T15:20:33.916Z,11.20
2023-01-13T15:23:01.425Z,12.93
2023-01-13T15:25:36.373Z,15.20
2023-01-13T15:28:04.847Z,17.50
2023-01-13T15:30:32.511Z,14.73
2023-01-13T15:32:59.949Z,13.97
2023-01-13T15:35:28.321Z,14.20
2023-01-13T15:37:56.279Z,14.87
2023-01-13T15:40:25.044Z,13.37
2023-01-13T15:43:11.376Z,15.27
2023-01-13T15:45:57.818Z,13.23
2023-01-13T15:48:26.382Z,13.93
2023-01-13T15:50:53.710Z,14.77
2023-01-13T15:53:21.376Z,13.93
2023-01-13T15:55:51.303Z,15.67
2023-01-13T15:58:20.882Z,15.47
2023-01-13T16:00:48.206Z,17.77
2023-01-13T16:03:15.885Z,16.23
2023-01-13T16:05:43.819Z,16.27
2023-01-13T16:08:21.908Z,16.93
2023-01-13T16:10:50.036Z,16.47
2023-01-13T16:13:18.143Z,16.27
2023-01-13T16:15:47.829Z,15.23
2023-01-13T16:18:24.334Z,17.80
2023-01-13T16:20:55.356Z,15.57
2023-01-13T16:23:22.931Z,17.33
2023-01-13T16:25:51.073Z,18.43
2023-01-13T16:28:28.243Z,16.33
2023-01-13T16:30:55.826Z,18.07
2023-01-13T16:33:22.852Z,19.77
2023-01-13T16:36:12.232Z,14.53
2023-01-13T16:38:37.895Z,16.70
2023-01-13T16:41:05.490Z,15.60
2023-01-13T16:43:32.923Z,21.63
2023-01-13T16:46:00.471Z,26.07
2023-01-13T16:48:28.066Z,17.43
2023-01-13T16:50:56.207Z,19.93
2023-01-13T16:53:23.632Z,17.97
2023-01-13T16:55:51.050Z,17.63
2023-01-13T16:58:20.415Z,18.47
2023-01-13T17:00:48.241Z,20.90
2023-01-13T17:03:15.939Z,21.97
2023-01-13T17:05:49.499Z,19.03
2023-01-13T17:08:18.276Z,18.40
2023-01-13T17:10:46.196Z,17.87
2023-01-13T17:13:17.086Z,19.83
2023-01-13T17:15:45.184Z,19.53
2023-01-13T17:18:13.613Z,17.43
2023-01-13T17:20:41.432Z,16.80
2023-01-13T17:23:08.939Z,19.50
2023-01-13T17:25:36.297Z,28.23
2023-01-13T17:28:03.844Z,17.87
2023-01-13T17:30:31.266Z,19.23
2023-01-13T17:32:58.608Z,18.10
2023-01-13T17:35:26.047Z,24.27
2023-01-13T17:37:53.803Z,19.13
2023-01-13T17:40:21.567Z,21.53
2023-01-13T17:42:48.909Z,21.03
2023-01-13T17:45:16.385Z,25.20
2023-01-13T17:47:43.795Z,23.90
2023-01-13T17:50:11.353Z,22.17
2023-01-13T17:52:38.647Z,22.97
2023-01-13T17:55:06.193Z,25.43
2023-01-13T17:57:35.250Z,23.17
2023-01-13T18:00:02.844Z,21.80
2023-01-13T18:02:39.643Z,22.77
2023-01-13T18:05:07.421Z,26.00
2023-01-13T18:07:34.703Z,25.03
2023-01-13T18:10:02.117Z,23.87
2023-01-13T18:12:29.449Z,22.37
2023-01-13T18:14:56.884Z,26.27
2023-01-13T18:17:24.232Z,27.03
2023-01-13T18:20:10.139Z,30.13
2023-01-13T18:22:55.999Z,27.30
2023-01-13T18:25:42.023Z,27.10
2023-01-13T18:28:09.368Z,27.40
2023-01-13T18:30:36.781Z,26.77
2023-01-13T18:33:04.245Z,27.60
2023-01-13T18:35:31.681Z,31.37
2023-01-13T18:37:59.135Z,26.07
2023-01-13T18:40:26.485Z,27.30
2023-01-13T18:42:58.831Z,27.60
2023-01-13T18:45:27.758Z,28.93
2023-01-13T18:47:56.494Z,27.47
2023-01-13T18:50:24.312Z,28.30
2023-01-13T18:52:52.061Z,30.57
2023-01-13T18:55:19.903Z,27.83
2023-01-13T18:57:47.438Z,29.50
2023-01-13T19:00:17.198Z,28.30
2023-01-13T19:02:44.897Z,30.13
2023-01-13T19:05:12.275Z,29.63
2023-01-13T19:07:39.783Z,28.60
2023-01-13T19:10:09.733Z,28.63
2023-01-13T19:12:37.240Z,29.77
2023-01-13T19:15:04.782Z,28.87
2023-01-13T19:17:33.610Z,30.03
2023-01-13T19:20:01.243Z,29.23
2023-01-13T19:22:30.815Z,28.07
2023-01-13T19:24:58.544Z,27.63
2023-01-13T19:27:27.583Z,29.77
2023-01-13T19:29:58.210Z,29.23
2023-01-13T19:32:25.711Z,31.83
2023-01-13T19:34:55.015Z,29.30
2023-01-13T19:37:22.445Z,32.20
2023-01-13T19:39:50.082Z,29.37
2023-01-13T19:42:37.777Z,30.07
2023-01-13T19:45:24.012Z,31.07
2023-01-13T19:47:51.480Z,27.97
2023-01-13T19:50:18.886Z,27.77
2023-01-13T19:52:46.307Z,29.87
2023-01-13T19:55:13.696Z,37.43
2023-01-13T19:57:41.618Z,29.10
2023-01-13T20:00:09.923Z,24.57
2023-01-13T20:02:47.709Z,25.00
2023-01-13T20:05:20.766Z,28.77
2023-01-13T20:07:48.887Z,26.40
2023-01-13T20:10:17.206Z,27.87
2023-01-13T20:12:44.525Z,25.77
2023-01-13T20:15:12.103Z,26.23
2023-01-13T20:17:41.332Z,22.80
2023-01-13T20:20:09.341Z,22.37
2023-01-13T20:22:37.659Z,21.77
2023-01-13T20:25:05.420Z,21.00
2023-01-13T20:27:32.858Z,18.60
2023-01-13T20:30:00.252Z,19.17
2023-01-13T20:32:27.585Z,17.50
2023-01-13T20:34:55.650Z,18.67
2023-01-13T20:37:26.878Z,16.27
2023-01-13T20:39:55.284Z,14.93
2023-01-13T20:42:32.629Z,18.33
2023-01-13T20:45:01.567Z,18.03
2023-01-13T20:47:29.573Z,15.60
2023-01-13T20:50:00.279Z,16.57
2023-01-13T20:52:28.235Z,13.30
2023-01-13T20:54:57.618Z,12.70
2023-01-13T20:57:25.458Z,12.83
2023-01-13T20:59:53.729Z,14.13
2023-01-13T21:02:24.289Z,12.47
2023-01-13T21:04:52.271Z,13.50
2023-01-13T21:07:21.531Z,13.80
2023-01-13T21:09:48.943Z,10.60
2023-01-13T21:12:35.951Z,13.33
2023-01-13T21:15:17.833Z,14.90
2023-01-13T21:18:08.514Z,11.60
2023-01-13T21:20:42.793Z,14.93
2023-01-13T21:23:11.183Z,16.43
2023-01-13T21:25:42.174Z,12.63
2023-01-13T21:28:12.581Z,12.60
2023-01-13T21:30:40.457Z,14.40
2023-01-13T21:33:08.100Z,13.10
2023-01-13T21:35:38.364Z,15.17
2023-01-13T21:38:05.604Z,11.57
2023-01-13T21:40:33.317Z,12.13
2023-01-13T21:43:19.752Z,14.17
2023-01-13T21:46:07.279Z,13.53
2023-01-13T21:48:37.299Z,14.00
2023-01-13T21:51:05.234Z,14.10
2023-01-13T21:53:39.589Z,14.70
2023-01-13T21:56:08.180Z,16.10
2023-01-13T21:58:35.423Z,13.90
2023-01-13T22:01:04.998Z,14.90
2023-01-13T22:03:56.878Z,14.57
2023-01-13T22:06:28.906Z,13.13
2023-01-13T22:09:01.950Z,15.50
2023-01-13T22:11:34.186Z,13.20
2023-01-13T22:14:10.229Z,13.47
2023-01-13T22:16:50.532Z,13.30
2023-01-13T22:19:19.674Z,13.13
2023-01-13T22:21:47.959Z,14.73
2023-01-13T22:24:18.170Z,14.27
2023-01-13T22:26:45.932Z,13.60
2023-01-13T22:29:13.807Z,13.00
2023-01-13T22:31:41.265Z,15.47
2023-01-13T22:34:11.764Z,12.97
2023-01-13T22:36:40.193Z,13.77
2023-01-13T22:39:08.094Z,14.83
2023-01-13T22:41:35.456Z,16.70
2023-01-13T22:44:03.681Z,15.30
2023-01-13T22:46:30.966Z,15.40
2023-01-13T22:48:58.679Z,12.53
2023-01-13T22:51:33.768Z,11.73
2023-01-13T22:54:37.426Z,11.73
2023-01-13T22:57:05.539Z,13.10
2023-01-13T22:59:33.818Z,14.50
2023-01-13T23:02:04.936Z,14.03
2023-01-13T23:04:34.544Z,18.00
2023-01-13T23:07:03.310Z,13.33
2023-01-13T23:09:31.487Z,14.40
2023-01-13T23:12:06.712Z,15.47
2023-01-13T23:14:40.955Z,20.70
2023-01-13T23:17:14.881Z,14.13
2023-01-13T23:19:42.561Z,17.97
2023-01-13T23:22:22.631Z,13.83
2023-01-13T23:24:54.106Z,17.30
2023-01-13T23:27:26.516Z,14.50
2023-01-13T23:29:56.076Z,16.50
2023-01-13T23:32:26.346Z,16.10
2023-01-13T23:34:55.862Z,14.73
2023-01-13T23:37:25.347Z,13.87
2023-01-13T23:39:53.443Z,17.80
2023-01-13T23:42:26.305Z,17.10
2023-01-13T23:44:53.991Z,17.30
2023-01-13T23:47:21.478Z,15.33
2023-01-13T23:49:51.467Z,15.90
2023-01-13T23:52:19.850Z,18.60
2023-01-13T23:54:46.710Z,22.43
2023-01-13T23:57:15.743Z,23.47
2023-01-13T23:59:46.896Z,17.93
